Saint-Pierre, Canada
Current Conditions -  °F | °C
As of 7:00 AM on Sunday 23 Nov 2014 (Local Time) from CYUL Reporting Station
Haze Haze  
Wind Chill: 33°   Ceiling: 5500
Heat Index: 37°   Visibility: 3mi
Dew Point: 37°   Wind: 6mph
Humidity: 100%   Direction: 220°SW
Pressure: 30"   Gusts: NA
Location:  45.43°N, 73.65°W
Report Text: CYUL 231200Z 22005KT 3SM BR BKN055 OVC070 03/03 A3000 RMK SC5AC3 SLP159
Loading
Personal Weather Stations






























Interactive Weather Map New forecast layout! Learn more

10-Day Weather Forecast

Advertisements
Track Severe Weather on mobile